Time;durP1;ratioP1;P1;durP2;ratioP2;P2;SDS_P1;SDS_P2;PMS_P1;PMS_P2;Temp;Humidity;BMP_temperature;BMP_pressure;BME280_temperature;BME280_humidity;BME280_pressure;Samples;Min_cycle;Max_cycle;Signal;HPM_P1;HPM_P2
2022/04/24 00:00:38;;;;;;;;;;;11.80;56.90;;;;;;5052719;28;19913;-81
2022/04/24 00:03:04;;;;;;;;;;;11.70;57.20;;;;;;5053688;28;19913;-82
2022/04/24 00:05:30;;;;;;;;;;;11.70;57.30;;;;;;5053259;28;19947;-83
2022/04/24 00:07:55;;;;;;;;;;;11.70;57.50;;;;;;5054180;28;19920;-82
2022/04/24 00:10:21;;;;;;;;;;;11.70;57.40;;;;;;5052623;28;20363;-82
2022/04/24 00:12:48;;;;;;;;;;;11.60;57.50;;;;;;5053636;28;19912;-83
2022/04/24 00:15:13;;;;;;;;;;;11.60;57.60;;;;;;5053783;28;19924;-83
2022/04/24 00:17:39;;;;;;;;;;;11.60;57.50;;;;;;5054448;28;19913;-83
2022/04/24 00:20:05;;;;;;;;;;;11.50;58.10;;;;;;5053193;28;19932;-82
2022/04/24 00:22:30;;;;;;;;;;;11.50;57.90;;;;;;5054848;28;19984;-83
2022/04/24 00:24:55;;;;;;;;;;;11.60;57.80;;;;;;5052523;28;19917;-83
2022/04/24 00:27:21;;;;;;;;;;;11.60;57.80;;;;;;5052921;28;19913;-82
2022/04/24 00:29:46;;;;;;;;;;;11.50;58.00;;;;;;5047626;28;19952;-83
2022/04/24 00:32:12;;;;;;;;;;;11.50;58.10;;;;;;5048612;28;19912;-83
2022/04/24 00:34:37;;;;;;;;;;;11.40;58.30;;;;;;5052294;28;19967;-82
2022/04/24 00:37:03;;;;;;;;;;;11.50;58.30;;;;;;5051794;28;19912;-83
2022/04/24 00:39:29;;;;;;;;;;;11.40;58.10;;;;;;5048972;28;19924;-82
2022/04/24 00:41:54;;;;;;;;;;;11.50;58.20;;;;;;5049368;28;20043;-82
2022/04/24 00:44:20;;;;;;;;;;;11.40;58.20;;;;;;5049253;28;19924;-82
2022/04/24 00:46:55;;;;;;;;;;;11.40;58.30;;;;;;5045781;28;20415;-82
2022/04/24 00:49:20;;;;;;;;;;;11.30;58.60;;;;;;5058444;28;19917;-83
2022/04/24 00:51:46;;;;;;;;;;;11.30;58.80;;;;;;5059554;28;19924;-83
2022/04/24 00:54:12;;;;;;;;;;;11.20;59.40;;;;;;5053219;28;19917;-83
2022/04/24 00:56:38;;;;;;;;;;;11.10;59.70;;;;;;5054408;28;19912;-83
2022/04/24 00:59:05;;;;;;;;;;;11.10;59.30;;;;;;5053915;28;19940;-82
2022/04/24 01:01:32;;;;;;;;;;;11.10;59.30;;;;;;5047879;28;20062;-83
2022/04/24 01:03:59;;;;;;;;;;;11.10;59.50;;;;;;5053373;28;19917;-83
2022/04/24 01:06:26;;;;;;;;;;;11.20;59.40;;;;;;5053104;28;20457;-83
2022/04/24 01:08:52;;;;;;;;;;;11.10;59.20;;;;;;5051685;28;19936;-82
2022/04/24 01:11:18;;;;;;;;;;;11.10;59.10;;;;;;5052031;28;20320;-82
2022/04/24 01:13:43;;;;;;;;;;;11.10;59.50;;;;;;5053205;28;19909;-83
2022/04/24 01:16:08;;;;;;;;;;;11.00;60.00;;;;;;5053867;28;19917;-82
2022/04/24 01:18:35;;;;;;;;;;;11.00;59.90;;;;;;5052329;28;19913;-83
2022/04/24 01:21:07;;;;;;;;;;;11.00;59.80;;;;;;5051513;28;19993;-82
2022/04/24 01:23:33;;;;;;;;;;;11.00;59.80;;;;;;5053346;28;19913;-82
2022/04/24 01:25:58;;;;;;;;;;;10.90;60.40;;;;;;5050869;28;19928;-82
2022/04/24 01:28:24;;;;;;;;;;;11.00;59.90;;;;;;5052885;28;20275;-82
2022/04/24 01:30:49;;;;;;;;;;;10.80;60.20;;;;;;5051468;28;20398;-82
2022/04/24 01:33:14;;;;;;;;;;;10.90;60.50;;;;;;5055708;28;19913;-83
2022/04/24 01:35:40;;;;;;;;;;;11.00;60.00;;;;;;5045139;28;19913;-83
2022/04/24 01:38:05;;;;;;;;;;;10.80;60.40;;;;;;5055382;28;19920;-82
2022/04/24 01:40:31;;;;;;;;;;;10.80;60.50;;;;;;5054001;28;19948;-83
2022/04/24 01:42:56;;;;;;;;;;;10.60;61.20;;;;;;5054315;28;19924;-83
2022/04/24 01:45:22;;;;;;;;;;;10.50;61.30;;;;;;5053723;28;20360;-83
2022/04/24 01:47:47;;;;;;;;;;;10.40;61.80;;;;;;5053453;28;19924;-83
2022/04/24 01:50:12;;;;;;;;;;;10.30;61.70;;;;;;5053794;28;19919;-83
2022/04/24 01:52:38;;;;;;;;;;;10.30;61.90;;;;;;5053890;28;19980;-82
2022/04/24 01:55:03;;;;;;;;;;;10.20;62.10;;;;;;5051409;28;19974;-83
2022/04/24 01:57:29;;;;;;;;;;;10.20;62.10;;;;;;5054056;28;19917;-81
2022/04/24 01:59:54;;;;;;;;;;;10.20;62.00;;;;;;5056440;28;19935;-83
2022/04/24 02:02:20;;;;;;;;;;;10.20;62.10;;;;;;5054809;28;19920;-84
2022/04/24 02:04:45;;;;;;;;;;;10.30;62.10;;;;;;5061220;28;19968;-83
2022/04/24 02:07:11;;;;;;;;;;;10.30;61.80;;;;;;5059553;28;19913;-83
2022/04/24 02:09:38;;;;;;;;;;;10.40;61.50;;;;;;5058790;28;19912;-83
2022/04/24 02:12:04;;;;;;;;;;;10.50;61.50;;;;;;5062423;28;19912;-83
2022/04/24 02:14:30;;;;;;;;;;;10.40;61.60;;;;;;5060176;28;19994;-83
2022/04/24 02:16:55;;;;;;;;;;;10.40;61.50;;;;;;5057543;28;19920;-83
2022/04/24 02:19:21;;;;;;;;;;;10.20;61.90;;;;;;5057077;28;19913;-82
2022/04/24 02:21:46;;;;;;;;;;;10.10;62.40;;;;;;5055443;28;19940;-83
2022/04/24 02:24:12;;;;;;;;;;;10.00;62.50;;;;;;5048914;28;19928;-83
2022/04/24 02:26:37;;;;;;;;;;;10.10;62.90;;;;;;5044986;28;20345;-83
2022/04/24 02:29:03;;;;;;;;;;;10.10;62.80;;;;;;5055234;28;20413;-83
2022/04/24 02:31:28;;;;;;;;;;;10.20;62.30;;;;;;5056510;28;19919;-82
2022/04/24 02:33:54;;;;;;;;;;;10.30;62.30;;;;;;5056754;28;19913;-83
2022/04/24 02:36:19;;;;;;;;;;;10.10;62.60;;;;;;5057166;28;20003;-83
2022/04/24 02:38:45;;;;;;;;;;;10.10;63.20;;;;;;5056267;28;19916;-83
2022/04/24 02:41:10;;;;;;;;;;;10.00;63.20;;;;;;5057083;28;19931;-83
2022/04/24 02:43:36;;;;;;;;;;;9.90;63.30;;;;;;5055344;28;19978;-83
2022/04/24 02:46:02;;;;;;;;;;;10.00;63.60;;;;;;5054880;28;19944;-82
2022/04/24 02:48:27;;;;;;;;;;;9.90;63.60;;;;;;5055459;28;20415;-84
2022/04/24 02:50:53;;;;;;;;;;;9.80;63.80;;;;;;5051525;28;19909;-83
2022/04/24 02:53:18;;;;;;;;;;;9.80;64.30;;;;;;5052563;28;19978;-83
2022/04/24 02:55:44;;;;;;;;;;;9.60;64.80;;;;;;5050834;28;19908;-83
2022/04/24 02:58:09;;;;;;;;;;;9.50;65.10;;;;;;5052798;28;20000;-82
2022/04/24 03:00:49;;;;;;;;;;;9.50;65.10;;;;;;5050014;28;19920;-83
2022/04/24 03:03:18;;;;;;;;;;;9.60;65.10;;;;;;5048993;28;20397;-83
2022/04/24 03:05:45;;;;;;;;;;;9.50;65.50;;;;;;5054407;28;19988;-83
2022/04/24 03:08:11;;;;;;;;;;;9.40;65.70;;;;;;5059381;28;20205;-84
2022/04/24 03:10:37;;;;;;;;;;;9.40;66.00;;;;;;5054156;28;20359;-83
2022/04/24 03:13:02;;;;;;;;;;;9.30;65.80;;;;;;5056422;28;19996;-84
2022/04/24 03:15:28;;;;;;;;;;;9.10;66.30;;;;;;5055084;28;19913;-83
2022/04/24 03:17:54;;;;;;;;;;;9.10;66.80;;;;;;5055710;28;19912;-83
2022/04/24 03:20:20;;;;;;;;;;;9.30;66.50;;;;;;5062452;28;20007;-83
2022/04/24 03:22:45;;;;;;;;;;;9.30;66.40;;;;;;5058831;28;19994;-84
2022/04/24 03:25:11;;;;;;;;;;;9.20;66.60;;;;;;5056951;28;20008;-82
2022/04/24 03:27:37;;;;;;;;;;;9.20;66.90;;;;;;5055376;28;19919;-83
2022/04/24 03:30:03;;;;;;;;;;;9.10;66.90;;;;;;5053819;28;19976;-83
2022/04/24 03:32:31;;;;;;;;;;;9.20;66.90;;;;;;5057337;28;20003;-84
2022/04/24 03:34:57;;;;;;;;;;;9.10;67.30;;;;;;5061897;28;20289;-83
2022/04/24 03:37:22;;;;;;;;;;;9.10;67.40;;;;;;5056532;28;19913;-84
2022/04/24 03:39:48;;;;;;;;;;;9.00;67.70;;;;;;5052744;28;20368;-83
2022/04/24 03:42:13;;;;;;;;;;;8.90;68.30;;;;;;5056571;28;19967;-83
2022/04/24 03:44:39;;;;;;;;;;;9.00;68.10;;;;;;5055996;28;20272;-83
2022/04/24 03:47:05;;;;;;;;;;;9.00;68.10;;;;;;5056189;28;19913;-82
2022/04/24 03:49:31;;;;;;;;;;;8.90;68.40;;;;;;5054670;28;20344;-83
2022/04/24 03:51:57;;;;;;;;;;;8.90;68.50;;;;;;5054041;28;19946;-83
2022/04/24 03:54:22;;;;;;;;;;;9.00;68.20;;;;;;5053720;28;19909;-84
2022/04/24 03:56:48;;;;;;;;;;;8.90;68.50;;;;;;5054656;28;19917;-84
2022/04/24 03:59:13;;;;;;;;;;;8.90;68.70;;;;;;5055552;28;20011;-83
2022/04/24 04:01:39;;;;;;;;;;;8.80;69.00;;;;;;5055146;28;20403;-83
2022/04/24 04:04:04;;;;;;;;;;;8.80;69.00;;;;;;5059153;28;19913;-83
2022/04/24 04:06:30;;;;;;;;;;;8.80;69.10;;;;;;5058184;28;19924;-83
2022/04/24 04:08:55;;;;;;;;;;;8.80;69.10;;;;;;5050712;28;19917;-83
2022/04/24 04:11:21;;;;;;;;;;;8.80;69.20;;;;;;5059434;28;19905;-82
2022/04/24 04:13:46;;;;;;;;;;;8.90;69.00;;;;;;5055061;28;19974;-83
2022/04/24 04:16:12;;;;;;;;;;;8.80;69.40;;;;;;5057058;28;19909;-83
2022/04/24 04:18:38;;;;;;;;;;;9.00;69.20;;;;;;5053607;28;20441;-83
2022/04/24 04:21:03;;;;;;;;;;;8.80;69.10;;;;;;5057873;28;20402;-82
2022/04/24 04:23:29;;;;;;;;;;;8.90;69.40;;;;;;5054752;28;19936;-82
2022/04/24 04:25:54;;;;;;;;;;;8.90;69.70;;;;;;5058514;28;19959;-84
2022/04/24 04:28:20;;;;;;;;;;;8.90;69.10;;;;;;5055421;28;19913;-84
2022/04/24 04:30:45;;;;;;;;;;;8.80;69.30;;;;;;5055171;28;19928;-82
2022/04/24 04:33:11;;;;;;;;;;;8.90;69.30;;;;;;5054089;28;19912;-83
2022/04/24 04:35:37;;;;;;;;;;;8.80;69.60;;;;;;5060476;28;19920;-83
2022/04/24 04:38:02;;;;;;;;;;;8.80;70.20;;;;;;5056863;28;19919;-83
2022/04/24 04:40:28;;;;;;;;;;;8.80;69.80;;;;;;5055184;28;19917;-83
2022/04/24 04:42:53;;;;;;;;;;;8.90;69.50;;;;;;5054220;28;19917;-83
2022/04/24 04:45:19;;;;;;;;;;;8.90;69.30;;;;;;5054889;28;19916;-84
2022/04/24 04:47:47;;;;;;;;;;;8.80;69.90;;;;;;5053785;28;20395;-83
2022/04/24 04:50:12;;;;;;;;;;;8.80;69.80;;;;;;5053503;28;19912;-83
2022/04/24 04:52:38;;;;;;;;;;;8.80;69.70;;;;;;5053486;28;19955;-83
2022/04/24 04:55:04;;;;;;;;;;;8.80;69.90;;;;;;5050536;28;20510;-83
2022/04/24 04:57:29;;;;;;;;;;;8.80;70.10;;;;;;5050092;28;19921;-82
2022/04/24 04:59:55;;;;;;;;;;;9.00;69.50;;;;;;5059890;28;20500;-83
2022/04/24 05:02:20;;;;;;;;;;;8.90;69.20;;;;;;5057964;28;19913;-83
2022/04/24 05:04:46;;;;;;;;;;;8.90;70.00;;;;;;5052060;28;19936;-83
2022/04/24 05:07:12;;;;;;;;;;;9.00;69.70;;;;;;5048186;28;19931;-83
2022/04/24 05:09:38;;;;;;;;;;;9.00;69.70;;;;;;5047608;28;19928;-83
2022/04/24 05:12:04;;;;;;;;;;;9.10;69.30;;;;;;5049857;28;20011;-83
2022/04/24 05:14:30;;;;;;;;;;;9.20;69.00;;;;;;5050150;28;20294;-83
2022/04/24 05:16:56;;;;;;;;;;;9.40;68.60;;;;;;5067129;28;19927;-83
2022/04/24 05:19:22;;;;;;;;;;;9.60;68.00;;;;;;5056496;28;19916;-82
2022/04/24 05:21:47;;;;;;;;;;;9.50;68.00;;;;;;5055536;28;19927;-83
2022/04/24 05:24:13;;;;;;;;;;;9.40;68.00;;;;;;5053557;28;20035;-83
2022/04/24 05:26:40;;;;;;;;;;;9.40;68.30;;;;;;5055178;28;19963;-83
2022/04/24 05:29:05;;;;;;;;;;;9.30;68.60;;;;;;5059156;28;19991;-82
2022/04/24 05:31:31;;;;;;;;;;;9.20;68.50;;;;;;5053183;28;19959;-83
2022/04/24 05:33:56;;;;;;;;;;;9.40;69.00;;;;;;5055132;28;20466;-83
2022/04/24 05:36:22;;;;;;;;;;;9.30;68.40;;;;;;5058024;28;20335;-81
2022/04/24 05:38:48;;;;;;;;;;;9.40;68.30;;;;;;5052751;28;20001;-81
2022/04/24 05:41:13;;;;;;;;;;;9.50;68.70;;;;;;5062442;28;19988;-83
2022/04/24 05:43:39;;;;;;;;;;;9.50;67.90;;;;;;5060990;28;19913;-83
2022/04/24 05:46:04;;;;;;;;;;;9.80;67.80;;;;;;5057715;28;19925;-82
2022/04/24 05:48:29;;;;;;;;;;;10.10;66.80;;;;;;5057913;28;20016;-81
2022/04/24 05:50:55;;;;;;;;;;;10.70;64.80;;;;;;5064026;28;20444;-83
2022/04/24 05:53:20;;;;;;;;;;;11.30;63.20;;;;;;5059266;28;19913;-83
2022/04/24 05:55:46;;;;;;;;;;;11.90;61.40;;;;;;5058170;28;19913;-83
2022/04/24 05:58:11;;;;;;;;;;;12.60;58.30;;;;;;5056347;28;19938;-83
2022/04/24 06:00:38;;;;;;;;;;;12.80;57.80;;;;;;5055167;28;19928;-83
2022/04/24 06:03:04;;;;;;;;;;;12.80;57.80;;;;;;5057722;28;20478;-82
2022/04/24 06:05:30;;;;;;;;;;;12.50;58.30;;;;;;5057201;28;19960;-82
2022/04/24 06:07:55;;;;;;;;;;;12.40;59.40;;;;;;5058083;28;19916;-83
2022/04/24 06:10:20;;;;;;;;;;;11.90;59.80;;;;;;5057107;28;20031;-83
2022/04/24 06:12:47;;;;;;;;;;;11.50;60.90;;;;;;5058859;28;19913;-83
2022/04/24 06:15:15;;;;;;;;;;;11.10;61.80;;;;;;5058721;28;20458;-83
2022/04/24 06:17:42;;;;;;;;;;;11.30;62.00;;;;;;5056184;28;19999;-83
2022/04/24 06:20:08;;;;;;;;;;;11.30;61.70;;;;;;5057062;28;20372;-83
2022/04/24 06:22:43;;;;;;;;;;;11.20;62.00;;;;;;5052020;28;20264;-81
2022/04/24 06:25:08;;;;;;;;;;;11.10;62.60;;;;;;5057184;28;19917;-82
2022/04/24 06:27:34;;;;;;;;;;;10.80;63.50;;;;;;5055383;28;19912;-82
2022/04/24 06:30:01;;;;;;;;;;;10.60;64.90;;;;;;5052754;28;19912;-82
2022/04/24 06:32:30;;;;;;;;;;;10.50;65.30;;;;;;5045700;28;19956;-83
2022/04/24 06:34:55;;;;;;;;;;;10.50;64.80;;;;;;5051364;28;19952;-84
2022/04/24 06:37:21;;;;;;;;;;;10.60;65.50;;;;;;5055699;28;19931;-83
2022/04/24 06:39:46;;;;;;;;;;;10.60;65.40;;;;;;5055140;28;19913;-82
2022/04/24 06:42:12;;;;;;;;;;;10.60;64.90;;;;;;5056499;28;19951;-83
2022/04/24 06:44:37;;;;;;;;;;;10.60;65.40;;;;;;5057554;28;19917;-83
2022/04/24 06:47:03;;;;;;;;;;;10.60;64.60;;;;;;5056640;28;19913;-83
2022/04/24 06:49:29;;;;;;;;;;;10.60;64.70;;;;;;5055307;28;19916;-82
2022/04/24 06:51:54;;;;;;;;;;;10.70;64.90;;;;;;5056595;28;19958;-82
2022/04/24 06:54:20;;;;;;;;;;;10.80;64.30;;;;;;5055385;28;19985;-82
2022/04/24 06:56:45;;;;;;;;;;;10.90;64.20;;;;;;5060846;28;19912;-82
2022/04/24 06:59:10;;;;;;;;;;;10.90;64.50;;;;;;5056472;28;19931;-83
2022/04/24 07:01:36;;;;;;;;;;;11.00;65.20;;;;;;5060078;28;19919;-82
2022/04/24 07:04:01;;;;;;;;;;;11.00;64.20;;;;;;5060826;28;19925;-82
2022/04/24 07:06:27;;;;;;;;;;;11.10;63.90;;;;;;5068796;28;19917;-81
2022/04/24 07:08:52;;;;;;;;;;;11.10;63.00;;;;;;5057256;28;19936;-81
2022/04/24 07:11:18;;;;;;;;;;;11.10;63.50;;;;;;5056184;28;19921;-83
2022/04/24 07:13:44;;;;;;;;;;;11.20;63.00;;;;;;5056878;28;20304;-82
2022/04/24 07:16:09;;;;;;;;;;;11.30;62.70;;;;;;5052866;28;19917;-82
2022/04/24 07:18:35;;;;;;;;;;;11.30;62.40;;;;;;5050952;28;19986;-83
2022/04/24 07:21:02;;;;;;;;;;;11.40;63.20;;;;;;5056543;28;20003;-83
2022/04/24 07:23:28;;;;;;;;;;;11.40;62.80;;;;;;5051181;28;19917;-83
2022/04/24 07:25:53;;;;;;;;;;;11.60;62.30;;;;;;5048978;28;19925;-83
2022/04/24 07:28:19;;;;;;;;;;;11.60;61.30;;;;;;5053326;28;20006;-82
2022/04/24 07:30:45;;;;;;;;;;;11.60;61.30;;;;;;5052029;28;19920;-82
2022/04/24 07:33:11;;;;;;;;;;;11.60;62.20;;;;;;5053742;28;19913;-83
2022/04/24 07:35:37;;;;;;;;;;;11.70;61.80;;;;;;5051593;28;20658;-83
2022/04/24 07:38:03;;;;;;;;;;;11.70;60.90;;;;;;5052444;28;19912;-83
2022/04/24 07:40:29;;;;;;;;;;;11.80;61.00;;;;;;5048225;28;19921;-85
2022/04/24 07:42:57;;;;;;;;;;;11.70;61.60;;;;;;5052999;28;19912;-87
2022/04/24 07:45:24;;;;;;;;;;;11.60;61.20;;;;;;5048496;28;19999;-82
2022/04/24 07:47:50;;;;;;;;;;;11.70;63.10;;;;;;5059133;28;19935;-86
2022/04/24 07:50:16;;;;;;;;;;;11.80;61.30;;;;;;5051637;28;19948;-86
2022/04/24 07:52:42;;;;;;;;;;;11.90;60.80;;;;;;5049105;28;19923;-84
2022/04/24 07:55:09;;;;;;;;;;;12.00;61.80;;;;;;5044863;28;19933;-84
2022/04/24 07:57:35;;;;;;;;;;;12.10;61.20;;;;;;5048237;28;19913;-84
2022/04/24 08:00:03;;;;;;;;;;;12.20;60.90;;;;;;5050153;28;20299;-85
2022/04/24 08:02:28;;;;;;;;;;;12.30;60.00;;;;;;5051527;28;19913;-84
2022/04/24 08:04:54;;;;;;;;;;;12.30;59.90;;;;;;5049708;28;19942;-85
2022/04/24 08:07:22;;;;;;;;;;;12.40;59.70;;;;;;5050944;28;19999;-85
2022/04/24 08:09:53;;;;;;;;;;;12.50;58.80;;;;;;5052084;28;19944;-85
2022/04/24 08:12:18;;;;;;;;;;;12.50;58.70;;;;;;5048770;28;20349;-85
2022/04/24 08:14:44;;;;;;;;;;;12.60;60.60;;;;;;5052871;28;19917;-84
2022/04/24 08:17:10;;;;;;;;;;;12.60;59.60;;;;;;5052139;28;20360;-84
2022/04/24 08:19:35;;;;;;;;;;;12.70;58.80;;;;;;5052240;28;19920;-83
2022/04/24 08:22:01;;;;;;;;;;;12.70;57.60;;;;;;5062954;28;19913;-83
2022/04/24 08:24:27;;;;;;;;;;;12.80;58.50;;;;;;5053833;28;19947;-86
2022/04/24 08:26:52;;;;;;;;;;;12.90;58.20;;;;;;5053591;28;19912;-84
2022/04/24 08:29:18;;;;;;;;;;;13.00;57.60;;;;;;5052387;28;19953;-82
2022/04/24 08:31:43;;;;;;;;;;;13.00;58.50;;;;;;5053508;28;19913;-84
2022/04/24 08:34:09;;;;;;;;;;;13.10;57.80;;;;;;5052861;28;19935;-82
2022/04/24 08:36:34;;;;;;;;;;;13.10;57.30;;;;;;5052826;28;20355;-83
2022/04/24 08:39:00;;;;;;;;;;;13.10;56.60;;;;;;5051973;28;20347;-84
2022/04/24 08:41:26;;;;;;;;;;;13.20;57.50;;;;;;5051505;28;19913;-85
2022/04/24 08:43:52;;;;;;;;;;;13.20;57.40;;;;;;5043468;28;19913;-85
2022/04/24 08:46:17;;;;;;;;;;;13.20;57.60;;;;;;5051271;28;20007;-85
2022/04/24 08:48:45;;;;;;;;;;;13.30;56.10;;;;;;5050848;28;19960;-87
2022/04/24 08:51:11;;;;;;;;;;;13.40;56.40;;;;;;5050527;28;19917;-84
2022/04/24 08:53:38;;;;;;;;;;;13.40;56.00;;;;;;5050579;28;20648;-84
2022/04/24 08:56:03;;;;;;;;;;;13.50;55.80;;;;;;5053436;28;20391;-85
2022/04/24 08:58:30;;;;;;;;;;;13.60;55.80;;;;;;5051891;28;19924;-83
2022/04/24 09:00:56;;;;;;;;;;;13.60;56.20;;;;;;5050440;28;19946;-85
2022/04/24 09:03:22;;;;;;;;;;;13.80;54.90;;;;;;5051430;28;20003;-85
2022/04/24 09:05:47;;;;;;;;;;;13.80;55.20;;;;;;5051965;28;20011;-85
2022/04/24 09:08:13;;;;;;;;;;;13.80;55.20;;;;;;5052266;28;20288;-84
2022/04/24 09:10:47;;;;;;;;;;;13.90;55.50;;;;;;5050168;28;19912;-83
2022/04/24 09:13:23;;;;;;;;;;;13.80;54.90;;;;;;5044110;28;19913;-84
2022/04/24 09:15:59;;;;;;;;;;;14.10;55.30;;;;;;5051485;28;19917;-82
2022/04/24 09:18:41;;;;;;;;;;;14.20;55.70;;;;;;5050760;28;19936;-83
2022/04/24 09:21:06;;;;;;;;;;;14.20;56.40;;;;;;5048121;28;19928;-84
2022/04/24 09:23:36;;;;;;;;;;;14.20;54.60;;;;;;5051157;28;19913;-83
2022/04/24 09:26:01;;;;;;;;;;;14.30;56.40;;;;;;5051666;28;19921;-87
2022/04/24 09:28:36;;;;;;;;;;;14.30;56.00;;;;;;5036305;28;19928;-85
2022/04/24 09:31:03;;;;;;;;;;;14.50;53.70;;;;;;5065623;28;19925;-83
2022/04/24 09:33:34;;;;;;;;;;;14.40;53.40;;;;;;5064515;28;19921;-85
2022/04/24 09:35:59;;;;;;;;;;;14.40;55.50;;;;;;5053562;28;20386;-84
2022/04/24 09:38:25;;;;;;;;;;;14.40;55.50;;;;;;5058237;28;19916;-85
2022/04/24 09:40:50;;;;;;;;;;;14.60;53.60;;;;;;5050129;28;20149;-84
2022/04/24 09:43:17;;;;;;;;;;;14.80;53.30;;;;;;5050516;28;19913;-89
2022/04/24 09:45:48;;;;;;;;;;;14.70;52.20;;;;;;5050977;28;19928;-84
2022/04/24 09:48:18;;;;;;;;;;;14.70;53.40;;;;;;5051704;28;19920;-83
2022/04/24 09:50:44;;;;;;;;;;;14.70;54.10;;;;;;5048499;28;19917;-84
2022/04/24 09:53:13;;;;;;;;;;;14.70;53.50;;;;;;5051368;28;19916;-84
2022/04/24 09:55:40;;;;;;;;;;;14.80;53.80;;;;;;5047322;28;19913;-84
2022/04/24 09:58:06;;;;;;;;;;;14.90;54.20;;;;;;5050574;28;19917;-84
2022/04/24 10:00:32;;;;;;;;;;;15.00;52.70;;;;;;5048436;28;19913;-84
2022/04/24 10:02:58;;;;;;;;;;;15.00;52.50;;;;;;5050116;28;19963;-84
2022/04/24 10:05:28;;;;;;;;;;;15.20;51.50;;;;;;5048407;28;19916;-84
2022/04/24 10:07:53;;;;;;;;;;;15.20;51.40;;;;;;5050209;28;19912;-85
2022/04/24 10:10:19;;;;;;;;;;;15.40;51.50;;;;;;5049689;28;19913;-84
2022/04/24 10:12:48;;;;;;;;;;;15.30;51.20;;;;;;5053038;28;19996;-85
2022/04/24 10:15:16;;;;;;;;;;;15.30;50.40;;;;;;5049556;28;19999;-85
2022/04/24 10:17:42;;;;;;;;;;;15.40;52.70;;;;;;5050671;28;20291;-86
2022/04/24 10:20:27;;;;;;;;;;;15.50;51.30;;;;;;5051186;28;19933;-83
2022/04/24 10:22:53;;;;;;;;;;;15.50;50.90;;;;;;5056584;28;20379;-86
2022/04/24 10:25:28;;;;;;;;;;;15.50;50.50;;;;;;5053825;28;20020;-86
2022/04/24 10:27:53;;;;;;;;;;;15.70;51.10;;;;;;5055128;28;19928;-83
2022/04/24 10:30:25;;;;;;;;;;;15.80;51.30;;;;;;5053908;28;20385;-84
2022/04/24 10:33:10;;;;;;;;;;;15.90;50.90;;;;;;5054299;28;19913;-83
2022/04/24 10:35:45;;;;;;;;;;;16.00;50.30;;;;;;5034927;28;19993;-84
2022/04/24 10:38:10;;;;;;;;;;;15.90;49.40;;;;;;5048941;28;20011;-82
2022/04/24 10:40:35;;;;;;;;;;;15.90;50.00;;;;;;5054214;28;20625;-86
2022/04/24 10:43:05;;;;;;;;;;;16.00;49.40;;;;;;5057871;28;19968;-84
2022/04/24 10:45:32;;;;;;;;;;;16.00;49.00;;;;;;5055493;28;20383;-85
2022/04/24 10:48:03;;;;;;;;;;;15.80;47.60;;;;;;5055945;28;19900;-83
2022/04/24 10:50:28;;;;;;;;;;;15.70;47.90;;;;;;5053270;28;19932;-89
2022/04/24 10:52:55;;;;;;;;;;;15.70;49.70;;;;;;5057928;28;19913;-84
2022/04/24 10:55:26;;;;;;;;;;;15.60;49.40;;;;;;5060703;28;19939;-85
2022/04/24 10:57:57;;;;;;;;;;;15.70;47.60;;;;;;5054849;28;19964;-84
2022/04/24 11:00:27;;;;;;;;;;;15.80;47.90;;;;;;5058521;28;19935;-84
2022/04/24 11:03:03;;;;;;;;;;;16.10;47.70;;;;;;5056073;28;19959;-85
2022/04/24 11:05:35;;;;;;;;;;;16.20;48.50;;;;;;5055866;28;19917;-86
2022/04/24 11:08:04;;;;;;;;;;;16.30;48.10;;;;;;5054865;28;20051;-84
2022/04/24 11:10:29;;;;;;;;;;;16.10;47.20;;;;;;5050896;28;19972;-82
2022/04/24 11:12:56;;;;;;;;;;;16.30;46.00;;;;;;5054598;28;20598;-83
2022/04/24 11:15:21;;;;;;;;;;;16.60;48.00;;;;;;5050470;28;19913;-84
2022/04/24 11:17:47;;;;;;;;;;;16.70;46.20;;;;;;5052447;28;19923;-84
2022/04/24 11:20:13;;;;;;;;;;;16.90;46.10;;;;;;5051297;28;20509;-83
2022/04/24 11:22:52;;;;;;;;;;;16.60;45.60;;;;;;5047192;28;19938;-84
2022/04/24 11:25:25;;;;;;;;;;;16.40;46.00;;;;;;5051783;28;19978;-85
2022/04/24 11:27:58;;;;;;;;;;;16.30;47.60;;;;;;5052656;28;20355;-84
2022/04/24 11:30:32;;;;;;;;;;;16.30;47.40;;;;;;5050599;28;19920;-85
2022/04/24 11:33:05;;;;;;;;;;;16.40;46.90;;;;;;5052203;28;20358;-87
2022/04/24 11:35:31;;;;;;;;;;;16.60;48.00;;;;;;5051535;28;19939;-88
2022/04/24 11:37:57;;;;;;;;;;;16.70;45.50;;;;;;5052353;28;20011;-85
2022/04/24 11:40:23;;;;;;;;;;;16.60;46.00;;;;;;5051707;28;19953;-87
2022/04/24 11:42:48;;;;;;;;;;;16.50;47.10;;;;;;5044467;28;19939;-86
2022/04/24 11:50:50;;;;;;;;;;;16.60;48.40;;;;;;5051153;28;19967;-82
2022/04/24 11:53:15;;;;;;;;;;;16.70;46.20;;;;;;5052659;28;20425;-84
2022/04/24 11:58:25;;;;;;;;;;;16.90;47.00;;;;;;5060041;28;19923;-82
2022/04/24 12:00:51;;;;;;;;;;;16.90;46.90;;;;;;5072054;28;19960;-84
2022/04/24 12:03:35;;;;;;;;;;;17.00;46.00;;;;;;5052639;28;19913;-88
2022/04/24 12:06:04;;;;;;;;;;;17.10;45.10;;;;;;5050595;28;20295;-84
2022/04/24 12:08:39;;;;;;;;;;;17.30;45.60;;;;;;5052102;28;20383;-85
2022/04/24 12:11:05;;;;;;;;;;;17.20;43.80;;;;;;5051490;28;19924;-86
2022/04/24 12:13:32;;;;;;;;;;;17.10;45.60;;;;;;5050507;28;19913;-85
2022/04/24 12:15:57;;;;;;;;;;;17.30;45.70;;;;;;5051418;28;20009;-84
2022/04/24 12:18:24;;;;;;;;;;;17.20;45.40;;;;;;5051506;28;19913;-86
2022/04/24 12:20:52;;;;;;;;;;;17.30;46.70;;;;;;5049868;28;19924;-84
2022/04/24 12:23:18;;;;;;;;;;;17.30;46.60;;;;;;5045171;28;19913;-83
2022/04/24 12:25:53;;;;;;;;;;;17.10;45.60;;;;;;5050500;28;19944;-85
2022/04/24 12:28:32;;;;;;;;;;;17.30;48.10;;;;;;5050244;28;20290;-85
2022/04/24 12:30:58;;;;;;;;;;;17.30;45.40;;;;;;5051485;28;19913;-86
2022/04/24 12:33:30;;;;;;;;;;;17.20;45.80;;;;;;5048888;28;20038;-89
2022/04/24 12:36:13;;;;;;;;;;;17.00;46.10;;;;;;5042664;28;19923;-84
2022/04/24 12:38:39;;;;;;;;;;;16.80;45.60;;;;;;5051495;28;19956;-83
2022/04/24 12:41:08;;;;;;;;;;;16.80;46.90;;;;;;5048208;28;20280;-85
2022/04/24 12:43:34;;;;;;;;;;;16.90;45.20;;;;;;5051098;28;20295;-84
2022/04/24 12:46:02;;;;;;;;;;;17.10;45.70;;;;;;5052748;28;19920;-86
2022/04/24 12:48:28;;;;;;;;;;;17.10;45.50;;;;;;5040331;28;19923;-82
2022/04/24 12:50:54;;;;;;;;;;;17.20;46.50;;;;;;5048864;28;20359;-85
2022/04/24 12:53:20;;;;;;;;;;;17.20;45.00;;;;;;5047618;28;19921;-84
2022/04/24 12:55:46;;;;;;;;;;;17.50;46.50;;;;;;5051017;28;20299;-84
2022/04/24 12:58:14;;;;;;;;;;;17.20;45.20;;;;;;5059414;28;19923;-82
2022/04/24 13:00:41;;;;;;;;;;;17.10;44.80;;;;;;5056483;28;19927;-83
2022/04/24 13:03:08;;;;;;;;;;;17.00;44.60;;;;;;5051051;28;19924;-85
2022/04/24 13:05:34;;;;;;;;;;;17.00;45.70;;;;;;5052466;28;20008;-84
2022/04/24 13:07:59;;;;;;;;;;;17.10;45.60;;;;;;5050587;28;20390;-85
2022/04/24 13:10:25;;;;;;;;;;;17.20;45.40;;;;;;5049959;28;19919;-83
2022/04/24 13:12:51;;;;;;;;;;;17.10;43.70;;;;;;5050174;28;19919;-83
2022/04/24 13:15:17;;;;;;;;;;;17.00;43.80;;;;;;5052160;28;19920;-82
2022/04/24 13:20:26;;;;;;;;;;;17.20;46.70;;;;;;5051009;28;19962;-86
2022/04/24 13:22:52;;;;;;;;;;;17.50;47.00;;;;;;5056530;28;19964;-82
2022/04/24 13:25:18;;;;;;;;;;;17.20;45.80;;;;;;5049781;28;19943;-83
2022/04/24 13:27:43;;;;;;;;;;;17.10;45.10;;;;;;5052709;28;19913;-84
2022/04/24 13:30:09;;;;;;;;;;;17.10;44.90;;;;;;5058810;28;19962;-85
2022/04/24 13:32:35;;;;;;;;;;;17.10;44.10;;;;;;5052614;28;19913;-85
2022/04/24 13:35:00;;;;;;;;;;;17.10;44.70;;;;;;5052683;28;20378;-83
2022/04/24 13:40:10;;;;;;;;;;;17.30;47.50;;;;;;5046759;28;19943;-82
2022/04/24 13:42:44;;;;;;;;;;;17.30;45.50;;;;;;5055675;28;19917;-84
2022/04/24 13:45:10;;;;;;;;;;;17.20;44.30;;;;;;5038806;28;19996;-85
2022/04/24 13:47:35;;;;;;;;;;;17.10;43.80;;;;;;5058707;28;20501;-85
2022/04/24 13:50:01;;;;;;;;;;;17.20;44.40;;;;;;5063784;28;19912;-85
2022/04/24 13:52:35;;;;;;;;;;;17.40;43.90;;;;;;5061478;28;19901;-85
2022/04/24 13:55:01;;;;;;;;;;;17.50;43.50;;;;;;5068189;28;19919;-84
2022/04/24 13:57:50;;;;;;;;;;;17.50;43.60;;;;;;5040616;28;20016;-85
2022/04/24 14:00:26;;;;;;;;;;;17.40;43.70;;;;;;5037053;28;20024;-85
2022/04/24 14:02:57;;;;;;;;;;;17.50;44.10;;;;;;5040294;28;19917;-87
2022/04/24 14:05:24;;;;;;;;;;;17.50;43.70;;;;;;5052550;28;19917;-86
2022/04/24 14:10:35;;;;;;;;;;;17.10;44.20;;;;;;5047698;28;20214;-81
2022/04/24 14:13:11;;;;;;;;;;;17.10;43.90;;;;;;5055097;28;19951;-86
2022/04/24 14:15:37;;;;;;;;;;;17.00;45.10;;;;;;5054386;28;19944;-86
2022/04/24 14:18:03;;;;;;;;;;;17.10;44.90;;;;;;5052170;28;20331;-88
2022/04/24 14:20:29;;;;;;;;;;;17.30;47.20;;;;;;5053855;28;19917;-86
2022/04/24 14:22:56;;;;;;;;;;;17.40;45.50;;;;;;5058277;28;19916;-87
2022/04/24 14:25:25;;;;;;;;;;;17.30;45.80;;;;;;5052894;28;19963;-89
2022/04/24 14:27:54;;;;;;;;;;;17.40;44.00;;;;;;5054537;28;20032;-88
2022/04/24 14:30:28;;;;;;;;;;;17.50;42.70;;;;;;5045187;28;20379;-89
2022/04/24 14:32:54;;;;;;;;;;;17.40;43.90;;;;;;5052604;28;19919;-87